KCMY/CMY METAR and TAF weather

Enter ICAO airport designator
Station Type Date Time Source
KCMY METAR 2022/08/12 13:58 UTC NOAA

KCMY 121358Z AUTO 00000KT 5SM -RA BR FEW042 OVC090 16/14 A3031 RMK AO2 SLP268 P0004 T01550143 $


Station Type Date Time Source
KCMY Decoded METAR 2022/08/12 13:58 UTC NOAA

Sparta, Sparta / Fort McCoy Airport, WI, United States (KCMY) 43-57-30N 090-44-16W
Aug 12, 2022 - 09:58 AM EDT / 2022.08.12 1358 UTC
Wind: Calm:0
Visibility: 5 mile(s):0
Sky conditions: overcast
Weather: light rain; mist
Precipitation last hour: 0.04 inches
Temperature: 59.9 F (15.5 C)
Dew Point: 57.7 F (14.3 C)
Relative Humidity: 92%
Pressure (altimeter): 30.31 in. Hg (1026 hPa)
ob: KCMY 121358Z AUTO 00000KT 5SM -RA BR FEW042 OVC090 16/14 A3031 RMK AO2 SLP268 P0004 T01550143
cycle: 14

Station Type Date Time Source
KCMY TAF UTC NOAA

Error!

Example: see airport list